Time;durP1;ratioP1;P1;durP2;ratioP2;P2;SDS_P1;SDS_P2;PMS_P1;PMS_P2;Temp;Humidity;BMP_temperature;BMP_pressure;BME280_temperature;BME280_humidity;BME280_pressure;Samples;Min_cycle;Max_cycle;Signal;HPM_P1;HPM_P2
2021/10/06 00:00:31;;;;;;;5.13;1.80;;;15.30;90.50;;;;;;5011969;28;20429;-64
2021/10/06 00:02:56;;;;;;;5.57;2.03;;;15.30;90.60;;;;;;5012806;28;20022;-63
2021/10/06 00:05:22;;;;;;;10.48;2.70;;;15.30;90.60;;;;;;5013021;28;20094;-63
2021/10/06 00:07:47;;;;;;;5.60;2.40;;;15.30;90.40;;;;;;5012741;28;20052;-64
2021/10/06 00:10:13;;;;;;;6.90;2.30;;;15.30;90.50;;;;;;5010979;28;20026;-63
2021/10/06 00:12:39;;;;;;;6.93;2.80;;;15.30;90.40;;;;;;5011855;28;20040;-63
2021/10/06 00:15:06;;;;;;;6.25;2.25;;;15.30;90.20;;;;;;5012709;28;20034;-61
2021/10/06 00:17:32;;;;;;;7.65;2.45;;;15.30;90.20;;;;;;5011700;28;20445;-63
2021/10/06 00:19:58;;;;;;;7.60;2.40;;;15.30;90.30;;;;;;5012477;28;20029;-63
2021/10/06 00:22:24;;;;;;;5.85;2.47;;;15.30;90.30;;;;;;5012046;28;20076;-64
2021/10/06 00:24:50;;;;;;;6.40;2.42;;;15.20;90.20;;;;;;5012640;28;20489;-64
2021/10/06 00:27:15;;;;;;;5.32;2.15;;;15.20;90.10;;;;;;4996318;28;20109;-63
2021/10/06 00:29:41;;;;;;;5.65;2.10;;;15.30;90.20;;;;;;5010821;28;20053;-63
2021/10/06 00:32:07;;;;;;;7.30;2.50;;;15.20;90.10;;;;;;5012173;28;20038;-64
2021/10/06 00:34:32;;;;;;;6.28;2.00;;;15.20;90.10;;;;;;5012000;28;20034;-64
2021/10/06 00:36:58;;;;;;;5.28;2.22;;;15.20;90.00;;;;;;5012419;28;20041;-64
2021/10/06 00:39:23;;;;;;;6.93;2.42;;;15.20;90.10;;;;;;5009962;28;20018;-64
2021/10/06 00:41:49;;;;;;;7.82;2.60;;;15.20;90.00;;;;;;5012397;28;20481;-63
2021/10/06 00:44:19;;;;;;;6.85;2.75;;;15.20;90.00;;;;;;5012249;28;20389;-64
2021/10/06 00:46:46;;;;;;;5.72;2.10;;;15.20;90.00;;;;;;5012384;28;20026;-64
2021/10/06 00:49:16;;;;;;;5.15;2.30;;;15.20;90.00;;;;;;5011957;28;20392;-64
2021/10/06 00:51:43;;;;;;;6.40;2.30;;;15.20;90.00;;;;;;5012365;28;20083;-63
2021/10/06 00:54:09;;;;;;;7.25;2.38;;;15.20;90.00;;;;;;5012041;28;20052;-63
2021/10/06 00:56:35;;;;;;;6.53;2.25;;;15.20;90.10;;;;;;5012264;28;20389;-63
2021/10/06 00:59:02;;;;;;;4.82;2.10;;;15.20;89.70;;;;;;5011916;28;20366;-63
2021/10/06 01:01:27;;;;;;;5.30;2.08;;;15.20;89.90;;;;;;5011900;28;20025;-64
2021/10/06 01:03:53;;;;;;;4.57;2.10;;;15.20;89.90;;;;;;5012242;28;20493;-63
2021/10/06 01:06:19;;;;;;;5.55;1.90;;;15.20;89.80;;;;;;5011964;28;20030;-63
2021/10/06 01:08:45;;;;;;;4.13;1.88;;;15.20;89.70;;;;;;5011766;28;20080;-63
2021/10/06 01:11:11;;;;;;;5.95;1.90;;;15.20;89.90;;;;;;5011030;28;20496;-64
2021/10/06 01:13:37;;;;;;;5.50;1.92;;;15.20;89.70;;;;;;5011992;28;20030;-64
2021/10/06 01:16:04;;;;;;;7.25;2.15;;;15.20;89.80;;;;;;5011862;28;20026;-63
2021/10/06 01:18:29;;;;;;;6.68;1.92;;;15.20;89.60;;;;;;5011695;28;20054;-63
2021/10/06 01:20:55;;;;;;;6.93;2.10;;;15.20;89.70;;;;;;5011578;28;20490;-63
2021/10/06 01:23:20;;;;;;;6.10;2.38;;;15.20;90.00;;;;;;5011570;28;20489;-65
2021/10/06 01:25:47;;;;;;;6.93;2.08;;;15.20;90.00;;;;;;5011664;28;20396;-63
2021/10/06 01:28:12;;;;;;;5.72;2.03;;;15.20;90.00;;;;;;5010469;28;20025;-61
2021/10/06 01:30:38;;;;;;;3.45;1.50;;;15.20;90.10;;;;;;5011740;28;20041;-64
2021/10/06 01:33:04;;;;;;;5.68;2.08;;;15.20;90.10;;;;;;5011532;28;20485;-63
2021/10/06 01:35:29;;;;;;;3.78;1.80;;;15.20;90.00;;;;;;5011780;28;20037;-63
2021/10/06 01:37:55;;;;;;;4.63;2.00;;;15.20;90.10;;;;;;5011436;28;20030;-65
2021/10/06 01:40:24;;;;;;;6.88;2.30;;;15.20;90.10;;;;;;5011552;28;20030;-64
2021/10/06 01:42:52;;;;;;;4.63;1.90;;;15.20;90.00;;;;;;5011291;28;20026;-63
2021/10/06 01:45:30;;;;;;;6.60;2.33;;;15.20;90.10;;;;;;5011154;28;20026;-63
2021/10/06 01:48:08;;;;;;;5.75;2.25;;;15.20;90.10;;;;;;5001138;28;20038;-64
2021/10/06 01:50:34;;;;;;;5.22;1.98;;;15.20;90.10;;;;;;5010744;28;20096;-63
2021/10/06 01:53:00;;;;;;;6.40;2.17;;;15.20;90.20;;;;;;5011180;28;20030;-63
2021/10/06 01:55:30;;;;;;;6.30;2.03;;;15.20;89.60;;;;;;5011715;28;20481;-63
2021/10/06 01:57:58;;;;;;;6.72;2.50;;;15.20;90.10;;;;;;5010553;28;20056;-63
2021/10/06 02:00:25;;;;;;;6.03;2.10;;;15.20;90.00;;;;;;5011010;28;20481;-63
2021/10/06 02:02:50;;;;;;;6.40;2.58;;;15.20;90.00;;;;;;5010514;28;20022;-65
2021/10/06 02:05:16;;;;;;;6.03;2.47;;;15.20;90.20;;;;;;5011551;28;20593;-66
2021/10/06 02:07:42;;;;;;;5.80;2.25;;;15.20;90.10;;;;;;5011550;28;20042;-65
2021/10/06 02:10:08;;;;;;;7.03;2.45;;;15.20;90.10;;;;;;5010874;28;20056;-63
2021/10/06 02:12:33;;;;;;;6.72;2.42;;;15.20;89.80;;;;;;5011218;28;20446;-63
2021/10/06 02:15:00;;;;;;;6.30;2.15;;;15.20;90.10;;;;;;5011217;28;20068;-64
2021/10/06 02:17:25;;;;;;;7.20;2.60;;;15.20;89.80;;;;;;5011315;28;20413;-64
2021/10/06 02:19:51;;;;;;;6.18;2.83;;;15.20;89.90;;;;;;5010926;28;20033;-65
2021/10/06 02:22:17;;;;;;;6.53;2.85;;;15.20;90.00;;;;;;5010964;28;20032;-64
2021/10/06 02:24:42;;;;;;;7.28;2.78;;;15.20;90.00;;;;;;5014838;28;20029;-63
2021/10/06 02:27:08;;;;;;;4.25;2.00;;;15.20;89.70;;;;;;5015019;28;20040;-64
2021/10/06 02:29:34;;;;;;;4.85;2.28;;;15.20;90.00;;;;;;5014500;28;20061;-63
2021/10/06 02:32:00;;;;;;;6.38;2.55;;;15.20;89.80;;;;;;5014800;28;20032;-63
2021/10/06 02:34:25;;;;;;;8.15;2.67;;;15.10;90.00;;;;;;5014792;28;20038;-63
2021/10/06 02:36:52;;;;;;;5.57;2.28;;;15.20;89.30;;;;;;5013490;28;20036;-64
2021/10/06 02:39:19;;;;;;;5.60;2.50;;;15.10;89.40;;;;;;5014147;28;20539;-63
2021/10/06 02:41:45;;;;;;;6.10;2.50;;;15.10;89.50;;;;;;5014386;28;20058;-64
2021/10/06 02:44:10;;;;;;;6.63;2.50;;;15.10;89.60;;;;;;5014773;28;20049;-64
2021/10/06 02:46:37;;;;;;;8.88;2.67;;;15.10;89.60;;;;;;5014353;28;20587;-63
2021/10/06 02:49:03;;;;;;;5.75;2.42;;;15.20;89.70;;;;;;5014420;28;20029;-65
2021/10/06 02:51:29;;;;;;;5.93;2.35;;;15.10;89.50;;;;;;5014321;28;20115;-63
2021/10/06 02:53:54;;;;;;;9.93;2.28;;;15.10;89.50;;;;;;5004481;28;20069;-64
2021/10/06 02:56:20;;;;;;;10.27;2.50;;;15.10;89.60;;;;;;5009064;28;20022;-63
2021/10/06 02:58:45;;;;;;;8.25;2.63;;;15.10;89.30;;;;;;5013880;28;20076;-63
2021/10/06 03:01:11;;;;;;;7.28;2.50;;;15.10;89.20;;;;;;5014363;28;20029;-63
2021/10/06 03:03:36;;;;;;;7.90;2.67;;;15.10;89.20;;;;;;5014419;28;20026;-63
2021/10/06 03:06:03;;;;;;;5.90;2.42;;;15.10;89.20;;;;;;5013763;28;20084;-64
2021/10/06 03:08:28;;;;;;;8.15;2.38;;;15.10;89.10;;;;;;5013924;28;20029;-63
2021/10/06 03:10:54;;;;;;;5.55;2.30;;;15.10;89.10;;;;;;5013561;28;20545;-63
2021/10/06 03:13:19;;;;;;;6.55;2.30;;;15.10;89.30;;;;;;5047956;23;20046;-62
2021/10/06 03:15:45;;;;;;;7.75;2.28;;;15.10;89.40;;;;;;5008470;28;20057;-60
2021/10/06 03:18:11;;;;;;;5.45;2.20;;;15.10;89.50;;;;;;4998333;28;20486;-62
2021/10/06 03:20:36;;;;;;;8.00;2.10;;;15.10;89.50;;;;;;5011874;28;20109;-62
2021/10/06 03:23:04;;;;;;;6.60;2.55;;;15.20;90.00;;;;;;5003871;28;20513;-62
2021/10/06 03:25:29;;;;;;;5.95;2.03;;;15.10;89.70;;;;;;5012362;28;20022;-62
2021/10/06 03:27:55;;;;;;;5.93;2.90;;;15.20;89.60;;;;;;5011635;28;20038;-63
2021/10/06 03:30:21;;;;;;;5.13;2.10;;;15.20;89.60;;;;;;5012379;28;20033;-62
2021/10/06 03:32:46;;;;;;;6.55;2.30;;;15.10;89.70;;;;;;4996858;28;20112;-62
2021/10/06 03:35:12;;;;;;;6.00;2.22;;;15.10;89.80;;;;;;5008943;28;20027;-62
2021/10/06 03:37:38;;;;;;;6.07;2.20;;;15.10;89.80;;;;;;4994702;28;20045;-62
2021/10/06 03:40:06;;;;;;;5.63;2.40;;;15.20;89.60;;;;;;5005400;28;20030;-62
2021/10/06 03:42:32;;;;;;;7.32;2.83;;;15.20;90.00;;;;;;4993654;28;20027;-62
2021/10/06 03:44:57;;;;;;;5.70;2.50;;;15.10;89.20;;;;;;4995317;28;20403;-63
2021/10/06 03:47:23;;;;;;;10.57;2.95;;;15.10;89.70;;;;;;4995049;28;20038;-63
2021/10/06 03:49:48;;;;;;;6.10;2.53;;;15.10;89.80;;;;;;4997798;28;20026;-62
2021/10/06 03:52:14;;;;;;;5.55;2.17;;;15.10;89.40;;;;;;4994122;28;20022;-62
2021/10/06 03:54:39;;;;;;;6.10;2.40;;;15.10;89.50;;;;;;4993543;28;20505;-63
2021/10/06 03:57:05;;;;;;;6.30;2.40;;;15.10;89.50;;;;;;4997002;28;20045;-62
2021/10/06 03:59:30;;;;;;;5.55;2.40;;;15.10;89.40;;;;;;4993308;28;20025;-63
2021/10/06 04:01:56;;;;;;;6.38;2.28;;;15.10;89.50;;;;;;4993503;28;20026;-62
2021/10/06 04:04:21;;;;;;;5.28;2.42;;;15.10;89.80;;;;;;4993659;28;20022;-63
2021/10/06 04:06:47;;;;;;;5.93;2.47;;;15.10;89.60;;;;;;4994313;28;20109;-62
2021/10/06 04:09:12;;;;;;;6.85;2.40;;;15.10;89.60;;;;;;4994548;28;20030;-64
2021/10/06 04:11:38;;;;;;;7.40;2.50;;;15.10;89.30;;;;;;4994345;28;20026;-64
2021/10/06 04:14:04;;;;;;;5.53;2.10;;;15.10;88.70;;;;;;4993342;28;20038;-62
2021/10/06 04:16:29;;;;;;;7.13;2.63;;;15.10;89.50;;;;;;4993026;28;20034;-63
2021/10/06 04:18:55;;;;;;;6.28;2.42;;;15.10;89.20;;;;;;4993127;28;20101;-63
2021/10/06 04:21:21;;;;;;;6.78;2.38;;;15.10;89.10;;;;;;4994162;28;20034;-63
2021/10/06 04:23:46;;;;;;;5.97;2.40;;;15.10;88.60;;;;;;4993174;28;20026;-63
2021/10/06 04:26:12;;;;;;;5.68;2.17;;;15.10;89.00;;;;;;4993296;28;20057;-63
2021/10/06 04:28:37;;;;;;;5.45;2.00;;;15.00;88.80;;;;;;4991453;28;20034;-63
2021/10/06 04:31:03;;;;;;;8.10;2.45;;;15.10;88.80;;;;;;4999312;28;20054;-64
2021/10/06 04:33:28;;;;;;;7.75;2.50;;;15.10;88.90;;;;;;4992788;28;20036;-63
2021/10/06 04:35:54;;;;;;;5.47;2.15;;;15.10;88.10;;;;;;4993387;28;20035;-63
2021/10/06 04:38:20;;;;;;;5.95;2.20;;;15.10;89.00;;;;;;4992407;28;20547;-63
2021/10/06 04:40:45;;;;;;;7.55;2.45;;;15.10;88.70;;;;;;4991665;28;20076;-62
2021/10/06 04:43:12;;;;;;;5.45;2.20;;;15.10;89.20;;;;;;4992680;28;20057;-64
2021/10/06 04:45:38;;;;;;;7.20;2.03;;;15.10;88.70;;;;;;4992435;28;20022;-64
2021/10/06 04:48:04;;;;;;;5.40;2.20;;;15.10;88.50;;;;;;4995141;28;20035;-63
2021/10/06 04:50:30;;;;;;;6.95;2.20;;;15.10;88.70;;;;;;4992142;28;20049;-63
2021/10/06 04:52:56;;;;;;;6.43;2.03;;;15.10;87.60;;;;;;4986622;28;20105;-63
2021/10/06 04:55:22;;;;;;;5.45;1.95;;;15.10;88.40;;;;;;4987522;28;20165;-63
2021/10/06 04:57:48;;;;;;;5.93;2.08;;;15.00;87.20;;;;;;4991924;28;20576;-62
2021/10/06 05:00:14;;;;;;;4.97;2.20;;;15.00;88.40;;;;;;4999081;28;20029;-63
2021/10/06 05:02:40;;;;;;;4.85;2.13;;;15.00;88.30;;;;;;4992003;28;20030;-63
2021/10/06 05:05:06;;;;;;;5.25;2.08;;;15.00;88.30;;;;;;4998507;28;20029;-64
2021/10/06 05:07:32;;;;;;;6.78;1.90;;;15.00;88.70;;;;;;4995119;28;20040;-64
2021/10/06 05:09:57;;;;;;;7.65;2.13;;;15.10;88.50;;;;;;4997638;28;20026;-64
2021/10/06 05:12:23;;;;;;;6.57;2.03;;;15.00;88.40;;;;;;4989756;28;20057;-63
2021/10/06 05:14:50;;;;;;;7.00;2.17;;;15.00;87.90;;;;;;4990463;28;20046;-63
2021/10/06 05:17:15;;;;;;;11.60;2.75;;;15.00;85.80;;;;;;5001065;28;20033;-64
2021/10/06 05:19:41;;;;;;;14.55;2.35;;;14.90;83.90;;;;;;4991002;28;20033;-63
2021/10/06 05:22:07;;;;;;;8.63;2.38;;;14.80;84.40;;;;;;4986667;28;20033;-63
2021/10/06 05:24:32;;;;;;;7.68;2.33;;;14.80;85.40;;;;;;4991950;28;20030;-62
2021/10/06 05:26:58;;;;;;;5.13;2.15;;;14.90;85.40;;;;;;4991069;28;20031;-63
2021/10/06 05:29:23;;;;;;;7.93;2.25;;;14.90;86.30;;;;;;4991871;28;20018;-63
2021/10/06 05:31:49;;;;;;;6.63;2.17;;;14.90;86.70;;;;;;4991918;28;20031;-63
2021/10/06 05:34:15;;;;;;;7.68;2.35;;;14.90;86.80;;;;;;4992450;28;20092;-63
2021/10/06 05:36:40;;;;;;;9.13;2.40;;;15.00;86.80;;;;;;4992254;28;20034;-63
2021/10/06 05:39:06;;;;;;;7.90;2.33;;;15.00;87.00;;;;;;4991771;28;20050;-63
2021/10/06 05:41:31;;;;;;;7.10;2.47;;;14.90;86.90;;;;;;4992200;28;20026;-63
2021/10/06 05:43:57;;;;;;;8.32;2.15;;;15.00;87.10;;;;;;4991818;28;20398;-63
2021/10/06 05:46:26;;;;;;;7.82;2.30;;;14.90;87.00;;;;;;4992207;28;20489;-63
2021/10/06 05:48:51;;;;;;;7.22;2.22;;;14.90;87.20;;;;;;4991249;28;20052;-63
2021/10/06 05:51:17;;;;;;;6.65;2.10;;;15.00;87.50;;;;;;4991718;28;20049;-63
2021/10/06 05:53:42;;;;;;;6.47;2.15;;;14.90;86.90;;;;;;4988825;28;20022;-63
2021/10/06 05:56:08;;;;;;;7.63;2.20;;;15.00;87.00;;;;;;4991807;28;20054;-63
2021/10/06 05:58:33;;;;;;;6.38;2.17;;;15.00;87.40;;;;;;4992555;28;20076;-64
2021/10/06 06:00:59;;;;;;;5.55;1.95;;;15.00;87.10;;;;;;4993610;28;20037;-63
2021/10/06 06:03:25;;;;;;;6.85;2.17;;;15.00;87.20;;;;;;4992497;28;20018;-63
2021/10/06 06:05:50;;;;;;;20.90;3.05;;;14.90;87.20;;;;;;4995288;28;20034;-64
2021/10/06 06:08:16;;;;;;;27.00;3.25;;;14.90;87.20;;;;;;4995539;28;20398;-61
2021/10/06 06:10:41;;;;;;;20.67;2.53;;;14.90;87.40;;;;;;4994532;28;20038;-63
2021/10/06 06:13:07;;;;;;;17.10;2.42;;;15.00;87.70;;;;;;4995456;28;20390;-63
2021/10/06 06:15:32;;;;;;;10.18;2.13;;;14.90;87.70;;;;;;4995674;28;20045;-63
2021/10/06 06:17:58;;;;;;;6.35;2.22;;;15.00;87.30;;;;;;4995713;28;20034;-63
2021/10/06 06:20:23;;;;;;;8.18;2.28;;;14.90;87.00;;;;;;4995442;28;20026;-63
2021/10/06 06:22:51;;;;;;;5.35;1.92;;;15.00;88.50;;;;;;4995558;28;20022;-64
2021/10/06 06:25:17;;;;;;;6.55;2.03;;;14.90;87.60;;;;;;4995145;28;20022;-63
2021/10/06 06:27:43;;;;;;;8.27;2.17;;;15.00;87.10;;;;;;4995508;28;20034;-62
2021/10/06 06:30:09;;;;;;;8.05;2.13;;;15.00;87.20;;;;;;4995217;28;20105;-62
2021/10/06 06:32:34;;;;;;;8.15;2.00;;;15.00;86.90;;;;;;4995528;28;20104;-63
2021/10/06 06:35:00;;;;;;;8.27;2.15;;;14.90;86.30;;;;;;4995533;28;20042;-63
2021/10/06 06:37:26;;;;;;;9.02;2.15;;;15.00;86.90;;;;;;4995499;28;20034;-65
2021/10/06 06:39:51;;;;;;;7.15;2.38;;;14.90;86.10;;;;;;4995081;28;20026;-63
2021/10/06 06:42:17;;;;;;;9.50;2.00;;;14.90;86.90;;;;;;4995187;28;20034;-63
2021/10/06 06:44:43;;;;;;;7.88;2.00;;;14.90;87.00;;;;;;4995239;28;20030;-63
2021/10/06 06:47:08;;;;;;;9.38;1.95;;;14.90;87.10;;;;;;4995241;28;20034;-63
2021/10/06 06:49:34;;;;;;;7.85;2.13;;;14.90;87.40;;;;;;4994831;28;20030;-63
2021/10/06 06:51:59;;;;;;;5.20;1.70;;;14.90;86.70;;;;;;5013307;28;20045;-63
2021/10/06 06:54:26;;;;;;;8.40;2.40;;;14.90;87.40;;;;;;4993944;28;20142;-63
2021/10/06 06:56:51;;;;;;;7.68;2.58;;;14.90;87.50;;;;;;4994475;28;20098;-63
2021/10/06 06:59:17;;;;;;;6.65;1.95;;;15.00;87.40;;;;;;4994297;28;20018;-63
2021/10/06 07:01:42;;;;;;;6.43;1.85;;;14.90;87.80;;;;;;4994597;28;20054;-63
2021/10/06 07:04:09;;;;;;;6.40;1.83;;;15.00;87.80;;;;;;4994196;28;20110;-63
2021/10/06 07:06:35;;;;;;;6.57;2.20;;;15.00;88.00;;;;;;4994353;28;20146;-63
2021/10/06 07:09:03;;;;;;;6.20;1.85;;;14.90;87.80;;;;;;4992940;28;20022;-63
2021/10/06 07:11:29;;;;;;;6.07;1.90;;;14.90;88.10;;;;;;4994248;28;20029;-63
2021/10/06 07:13:55;;;;;;;6.95;2.00;;;15.00;88.20;;;;;;4992977;28;20035;-63
2021/10/06 07:16:20;;;;;;;12.23;2.13;;;14.90;88.40;;;;;;4992685;28;20034;-63
2021/10/06 07:18:46;;;;;;;8.52;1.88;;;14.90;88.10;;;;;;4993286;28;20030;-63
2021/10/06 07:21:12;;;;;;;5.07;1.90;;;15.00;88.10;;;;;;4993414;28;20061;-63
2021/10/06 07:23:37;;;;;;;8.10;2.13;;;14.90;88.30;;;;;;4993467;28;20145;-63
2021/10/06 07:26:03;;;;;;;4.82;1.50;;;15.00;88.00;;;;;;4993313;28;20493;-63
2021/10/06 07:28:29;;;;;;;6.10;1.90;;;14.90;88.30;;;;;;4993244;28;20382;-63
2021/10/06 07:30:55;;;;;;;6.05;1.75;;;14.90;87.90;;;;;;4994455;28;20084;-63
2021/10/06 07:33:20;;;;;;;4.90;1.70;;;14.90;88.00;;;;;;4994226;28;20077;-64
2021/10/06 07:35:46;;;;;;;5.03;1.67;;;14.90;88.40;;;;;;4994354;28;20026;-63
2021/10/06 07:38:11;;;;;;;6.20;1.95;;;14.90;87.90;;;;;;4994009;28;20036;-63
2021/10/06 07:40:37;;;;;;;5.50;1.65;;;14.90;87.60;;;;;;4993974;28;20022;-62
2021/10/06 07:43:02;;;;;;;5.75;1.70;;;14.90;87.80;;;;;;4994498;28;20110;-64
2021/10/06 07:45:28;;;;;;;5.38;1.90;;;14.90;88.00;;;;;;4994450;28;20061;-64
2021/10/06 07:47:54;;;;;;;4.65;1.50;;;14.90;87.80;;;;;;4994065;28;20364;-63
2021/10/06 07:50:19;;;;;;;6.53;1.77;;;14.90;88.00;;;;;;4994089;28;20030;-63
2021/10/06 07:52:45;;;;;;;6.15;1.70;;;14.90;88.00;;;;;;4993804;28;20030;-64
2021/10/06 07:55:10;;;;;;;3.65;1.75;;;14.90;88.20;;;;;;4993811;28;20028;-63
2021/10/06 07:57:36;;;;;;;5.63;1.60;;;15.00;87.60;;;;;;4993795;28;20073;-64
2021/10/06 08:00:07;;;;;;;6.22;2.17;;;14.90;88.00;;;;;;4992405;28;20019;-63
2021/10/06 08:02:32;;;;;;;4.93;2.08;;;14.90;87.50;;;;;;4993837;28;20022;-63
2021/10/06 08:04:58;;;;;;;5.43;1.65;;;14.90;87.60;;;;;;4993930;28;20478;-63
2021/10/06 08:07:23;;;;;;;9.35;1.80;;;14.90;87.40;;;;;;4993741;28;20033;-63
2021/10/06 08:09:49;;;;;;;11.73;1.83;;;14.90;85.50;;;;;;4992025;28;20022;-63
2021/10/06 08:12:14;;;;;;;7.78;2.05;;;14.90;86.50;;;;;;4993425;28;20480;-63
2021/10/06 08:14:40;;;;;;;6.07;1.70;;;14.90;86.50;;;;;;4993590;28;20037;-63
2021/10/06 08:17:06;;;;;;;9.20;1.95;;;14.90;86.30;;;;;;4993769;28;20026;-64
2021/10/06 08:19:31;;;;;;;9.55;1.90;;;14.90;86.50;;;;;;4992962;28;20026;-62
2021/10/06 08:21:57;;;;;;;5.68;1.60;;;14.90;86.70;;;;;;4993272;28;20026;-62
2021/10/06 08:24:22;;;;;;;5.28;1.70;;;14.90;86.00;;;;;;4993278;28;20026;-64
2021/10/06 08:26:48;;;;;;;7.68;1.98;;;14.90;86.50;;;;;;4993279;28;20027;-63
2021/10/06 08:29:14;;;;;;;8.20;1.90;;;14.90;86.30;;;;;;4993126;28;20027;-62
2021/10/06 08:31:40;;;;;;;6.45;1.80;;;14.90;86.20;;;;;;4993290;28;20105;-63
2021/10/06 08:34:05;;;;;;;7.57;1.60;;;14.90;86.10;;;;;;4993217;28;20026;-64
2021/10/06 08:36:32;;;;;;;8.45;1.80;;;14.90;86.60;;;;;;4991936;28;20030;-63
2021/10/06 08:38:57;;;;;;;11.48;2.20;;;14.90;86.40;;;;;;5024300;28;20027;-62
2021/10/06 08:41:23;;;;;;;28.08;2.90;;;15.00;86.00;;;;;;4993130;28;20389;-63
2021/10/06 08:43:49;;;;;;;12.82;1.90;;;14.90;85.60;;;;;;4992938;28;20018;-62
2021/10/06 08:46:15;;;;;;;6.75;1.70;;;14.90;85.30;;;;;;4992938;28;20027;-63
2021/10/06 08:48:41;;;;;;;6.47;1.63;;;14.90;86.20;;;;;;4992635;28;20407;-63
2021/10/06 08:51:07;;;;;;;7.22;1.40;;;15.00;85.70;;;;;;4992934;28;20023;-63
2021/10/06 08:53:32;;;;;;;5.38;1.50;;;14.90;86.00;;;;;;4992755;28;20033;-63
2021/10/06 08:55:58;;;;;;;7.00;1.65;;;14.90;85.90;;;;;;4993115;28;20053;-63
2021/10/06 08:58:23;;;;;;;7.22;2.35;;;14.90;86.00;;;;;;5023918;28;20113;-63
2021/10/06 09:00:56;;;;;;;5.80;1.70;;;14.90;85.70;;;;;;4992834;28;20040;-63
2021/10/06 09:03:32;;;;;;;6.28;1.65;;;14.90;85.50;;;;;;4991370;28;20018;-63
2021/10/06 09:06:09;;;;;;;5.15;1.60;;;14.90;86.00;;;;;;4992721;28;20026;-63
2021/10/06 09:08:37;;;;;;;6.20;1.20;;;14.90;85.90;;;;;;4991184;28;20383;-63
2021/10/06 09:11:06;;;;;;;5.75;1.60;;;14.90;85.80;;;;;;4986370;28;20050;-63
2021/10/06 09:13:35;;;;;;;4.97;1.60;;;14.90;85.10;;;;;;4992124;28;20060;-63
2021/10/06 09:16:00;;;;;;;6.30;1.63;;;14.90;85.60;;;;;;4992638;28;20290;-63
2021/10/06 09:18:31;;;;;;;4.88;1.65;;;14.90;86.10;;;;;;4991793;28;20026;-63
2021/10/06 09:21:03;;;;;;;4.72;1.70;;;14.90;86.30;;;;;;4992512;28;20033;-63
2021/10/06 09:23:29;;;;;;;4.53;1.38;;;14.90;86.50;;;;;;4992311;28;20026;-63
2021/10/06 09:26:00;;;;;;;4.20;1.50;;;14.90;86.90;;;;;;4992468;28;20379;-63
2021/10/06 09:28:32;;;;;;;7.25;1.75;;;14.90;86.70;;;;;;4991995;28;20512;-65
2021/10/06 09:31:02;;;;;;;7.88;1.60;;;14.90;85.90;;;;;;4992159;28;20034;-63
2021/10/06 09:33:42;;;;;;;9.63;1.63;;;14.90;85.30;;;;;;4991616;28;20117;-63
2021/10/06 09:36:08;;;;;;;3.25;1.30;;;14.90;85.30;;;;;;4992242;28;20416;-63
2021/10/06 09:38:42;;;;;;;3.47;1.20;;;14.90;84.90;;;;;;4991906;28;20030;-63
2021/10/06 09:41:28;;;;;;;4.88;1.40;;;14.80;85.70;;;;;;4992364;28;20189;-63
2021/10/06 09:44:19;;;;;;;5.45;1.20;;;14.80;85.50;;;;;;4991958;28;20023;-63
2021/10/06 09:47:17;;;;;;;3.90;1.30;;;14.80;85.10;;;;;;4992282;28;20486;-63
2021/10/06 09:49:43;;;;;;;3.55;1.40;;;14.80;85.00;;;;;;4990420;28;20043;-63
2021/10/06 09:52:17;;;;;;;3.78;1.42;;;14.80;85.50;;;;;;4992105;28;20030;-62
2021/10/06 09:55:07;;;;;;;4.80;1.52;;;14.80;85.30;;;;;;4992073;28;20026;-63
2021/10/06 09:57:40;;;;;;;5.00;1.10;;;14.80;84.90;;;;;;4991504;28;20497;-63
2021/10/06 10:00:24;;;;;;;4.40;1.20;;;14.80;86.00;;;;;;4991098;28;20042;-64
2021/10/06 10:02:49;;;;;;;4.32;1.20;;;14.80;85.20;;;;;;4980211;28;20101;-63
2021/10/06 10:05:16;;;;;;;4.65;1.60;;;14.80;85.70;;;;;;4991354;28;20450;-62
2021/10/06 10:07:42;;;;;;;3.47;1.20;;;14.80;85.50;;;;;;4992026;28;20022;-63
2021/10/06 10:10:10;;;;;;;4.15;1.13;;;14.80;85.50;;;;;;4991312;28;20030;-62
2021/10/06 10:12:36;;;;;;;4.90;1.30;;;14.80;85.80;;;;;;4991236;28;20540;-62
2021/10/06 10:15:03;;;;;;;3.83;1.08;;;14.80;85.60;;;;;;4990393;28;20038;-62
2021/10/06 10:17:30;;;;;;;4.57;1.20;;;14.80;85.60;;;;;;5012172;28;20073;-63
2021/10/06 10:19:58;;;;;;;3.95;1.27;;;14.80;84.70;;;;;;4973540;28;20051;-63
2021/10/06 10:22:33;;;;;;;2.42;1.10;;;14.80;85.50;;;;;;4981027;28;20088;-63
2021/10/06 10:25:13;;;;;;;8.25;1.42;;;14.80;85.20;;;;;;4972381;28;20023;-63
2021/10/06 10:28:06;;;;;;;19.23;2.33;;;14.80;84.50;;;;;;4972764;28;20110;-63
2021/10/06 10:30:33;;;;;;;8.75;1.50;;;14.80;84.70;;;;;;4972273;28;20062;-62
2021/10/06 10:33:00;;;;;;;6.50;1.20;;;14.80;85.40;;;;;;4972348;28;20059;-62
2021/10/06 10:35:40;;;;;;;19.50;2.30;;;14.80;85.80;;;;;;4987256;28;20035;-63
2021/10/06 10:38:12;;;;;;;7.90;1.70;;;14.80;86.50;;;;;;4974776;28;20031;-63
2021/10/06 10:40:45;;;;;;;6.03;1.35;;;14.80;86.00;;;;;;4972359;28;20023;-62
2021/10/06 10:43:25;;;;;;;5.47;1.50;;;14.80;86.90;;;;;;4972893;28;20015;-62
2021/10/06 10:45:59;;;;;;;8.32;1.60;;;14.80;86.10;;;;;;4990721;28;20019;-63
2021/10/06 10:49:01;;;;;;;7.15;1.42;;;14.80;87.00;;;;;;4975337;28;20039;-62
2021/10/06 10:51:45;;;;;;;4.85;1.42;;;14.80;87.10;;;;;;4975698;28;20037;-62
2021/10/06 10:54:28;;;;;;;8.10;1.48;;;14.80;87.20;;;;;;4975604;28;20033;-62
2021/10/06 10:56:54;;;;;;;5.82;1.40;;;14.90;87.00;;;;;;4975402;28;20062;-62
2021/10/06 10:59:24;;;;;;;4.85;1.40;;;14.80;87.50;;;;;;4975221;28;20054;-62
2021/10/06 11:01:55;;;;;;;4.22;1.27;;;14.80;87.40;;;;;;4975288;28;20041;-63
2021/10/06 11:04:23;;;;;;;5.05;1.30;;;14.80;87.20;;;;;;4990422;28;20023;-62
2021/10/06 11:06:54;;;;;;;5.00;1.45;;;14.80;87.30;;;;;;4975207;28;20023;-62
2021/10/06 11:09:31;;;;;;;4.15;1.50;;;14.80;87.00;;;;;;4975161;28;20015;-63
2021/10/06 11:12:06;;;;;;;4.97;1.38;;;14.80;87.50;;;;;;4975047;28;20023;-62
2021/10/06 11:14:37;;;;;;;4.63;1.60;;;14.80;87.40;;;;;;4975197;28;20026;-62
2021/10/06 11:17:06;;;;;;;5.30;1.42;;;14.80;87.50;;;;;;4975039;28;20037;-62
2021/10/06 11:19:42;;;;;;;5.18;1.58;;;14.90;87.30;;;;;;4989760;28;20031;-62
2021/10/06 11:22:22;;;;;;;6.20;1.58;;;14.90;87.50;;;;;;4974918;28;20106;-63
2021/10/06 11:24:57;;;;;;;4.70;1.30;;;14.80;87.90;;;;;;4975079;28;20023;-63
2021/10/06 11:27:23;;;;;;;4.30;1.30;;;14.90;88.00;;;;;;4974981;28;20066;-63
2021/10/06 11:29:53;;;;;;;3.63;1.30;;;14.90;87.90;;;;;;4975034;28;20037;-64
2021/10/06 11:32:19;;;;;;;3.25;1.20;;;14.90;88.20;;;;;;4974795;28;20085;-63
2021/10/06 11:34:45;;;;;;;3.85;1.42;;;14.90;88.40;;;;;;4974816;28;20027;-63
2021/10/06 11:37:29;;;;;;;3.70;1.33;;;14.90;88.20;;;;;;4974718;28;20559;-64
2021/10/06 11:39:55;;;;;;;9.18;1.48;;;14.90;88.70;;;;;;4974538;28;20487;-63
2021/10/06 11:42:30;;;;;;;4.13;1.67;;;14.90;88.80;;;;;;4989500;28;20045;-63
2021/10/06 11:44:56;;;;;;;3.17;1.35;;;14.90;88.80;;;;;;4974642;28;20023;-63
2021/10/06 11:47:22;;;;;;;4.35;1.23;;;14.90;88.70;;;;;;4974585;28;20029;-63
2021/10/06 11:49:49;;;;;;;4.68;1.33;;;14.90;88.90;;;;;;4974386;28;20022;-63
2021/10/06 11:52:20;;;;;;;3.25;1.27;;;14.90;89.20;;;;;;4974544;28;20030;-62
2021/10/06 11:54:46;;;;;;;4.45;1.40;;;14.90;89.10;;;;;;4988708;28;20592;-63
2021/10/06 11:57:13;;;;;;;4.90;1.40;;;14.90;89.10;;;;;;4974305;28;20046;-63
2021/10/06 11:59:42;;;;;;;3.75;1.45;;;14.90;89.20;;;;;;4974182;28;20058;-63
2021/10/06 12:02:10;;;;;;;3.92;1.30;;;14.90;89.20;;;;;;4974196;28;20106;-63
2021/10/06 12:04:38;;;;;;;2.53;1.30;;;14.90;89.70;;;;;;4974305;28;20026;-63
2021/10/06 12:07:10;;;;;;;2.72;1.30;;;14.90;89.30;;;;;;4974201;28;20027;-63
2021/10/06 12:09:40;;;;;;;;;;;14.90;89.70;;;;;;4974363;28;20038;-63
2021/10/06 12:12:25;;;;;;;2.97;1.42;;;14.90;89.80;;;;;;4972699;28;19945;-63
2021/10/06 12:14:51;;;;;;;3.08;1.30;;;14.90;89.40;;;;;;4974142;28;20073;-63
2021/10/06 12:17:21;;;;;;;3.90;1.20;;;14.90;89.90;;;;;;4973874;28;20464;-62
2021/10/06 12:20:06;;;;;;;2.53;1.40;;;14.90;90.00;;;;;;4973679;28;20026;-63
2021/10/06 12:22:35;;;;;;;4.15;1.50;;;14.90;90.10;;;;;;4973843;28;20066;-63
2021/10/06 12:25:05;;;;;;;3.88;1.48;;;14.90;90.00;;;;;;4973957;28;20030;-63
2021/10/06 12:27:33;;;;;;;2.53;1.20;;;14.90;90.00;;;;;;4973781;28;20031;-63
2021/10/06 12:30:22;;;;;;;2.78;1.30;;;14.90;90.10;;;;;;4973573;28;20035;-63
2021/10/06 12:33:05;;;;;;;3.22;1.40;;;14.90;90.20;;;;;;4973721;28;20030;-63
2021/10/06 12:35:54;;;;;;;2.40;1.30;;;14.90;90.10;;;;;;4973790;28;20118;-63
2021/10/06 12:38:20;;;;;;;4.00;1.45;;;14.90;90.30;;;;;;4973368;28;20031;-63
2021/10/06 12:40:51;;;;;;;5.28;1.20;;;14.90;90.20;;;;;;4973535;28;20015;-64
2021/10/06 12:43:28;;;;;;;2.53;1.20;;;14.90;90.30;;;;;;4973435;28;20019;-64
2021/10/06 12:46:03;;;;;;;2.90;1.60;;;14.90;90.20;;;;;;4973640;28;20170;-63
2021/10/06 12:48:35;;;;;;;1.65;1.20;;;14.80;90.40;;;;;;4973102;28;20402;-64